Blue Dog Lake, South Dakota
Current Conditions -  °F | °C
As of 10:53 AM on Sunday 23 Nov 2014 (Local Time) from KATY Reporting Station
Overcast Overcast  
Wind Chill: 28°   Ceiling: 9000
Heat Index: 37°   Visibility: 10mi
Dew Point: 32°   Wind: 14mph
Humidity: 82%   Direction: 290°WNW
Pressure: 29.52"   Gusts: NA
Location:  45.3948°N, 97.2932°W
Report Text: KATY 231653Z AUTO 29012KT 10SM OVC090 03/00 A2952 RMK AO2 SLP009 T00280000
Loading
Personal Weather Stations






























Interactive Weather Map New forecast layout! Learn more

10-Day Weather Forecast

Advertisements
Track Severe Weather on mobile